createdAt,value
2019-04-20T00:01:36.019Z,699.60
2019-04-20T00:03:43.525Z,675.33
2019-04-20T00:05:46.650Z,669.67
2019-04-20T00:07:52.167Z,660.47
2019-04-20T00:10:03.288Z,643.17
2019-04-20T00:12:10.826Z,635.30
2019-04-20T00:14:19.233Z,622.60
2019-04-20T00:16:25.074Z,621.83
2019-04-20T00:18:36.789Z,614.07
2019-04-20T00:20:39.044Z,616.63
2019-04-20T00:23:13.505Z,608.83
2019-04-20T00:25:46.261Z,603.27
2019-04-20T00:28:11.981Z,599.07
2019-04-20T00:30:27.576Z,593.63
2019-04-20T00:32:18.597Z,589.33
2019-04-20T00:34:26.742Z,581.10
2019-04-20T00:36:27.821Z,584.43
2019-04-20T00:38:39.694Z,580.00
2019-04-20T00:40:39.480Z,569.83
2019-04-20T00:42:50.078Z,575.00
2019-04-20T00:45:00.130Z,570.87
2019-04-20T00:47:09.832Z,573.30
2019-04-20T00:49:20.737Z,557.97
2019-04-20T00:51:31.514Z,564.00
2019-04-20T00:53:31.354Z,555.63
2019-04-20T00:55:31.713Z,551.03
2019-04-20T00:57:46.701Z,555.07
2019-04-20T01:00:09.287Z,542.40
2019-04-20T01:02:10.830Z,540.87
2019-04-20T01:04:14.831Z,535.83
2019-04-20T01:06:22.262Z,537.30
2019-04-20T01:08:27.680Z,523.33
2019-04-20T01:10:39.529Z,521.07
2019-04-20T01:12:40.255Z,521.40
2019-04-20T01:14:50.198Z,516.93
2019-04-20T01:16:58.824Z,514.30
2019-04-20T01:18:58.675Z,508.83
2019-04-20T01:21:06.839Z,505.77
2019-04-20T01:23:17.302Z,497.93
2019-04-20T01:25:30.672Z,495.27
2019-04-20T01:27:43.881Z,489.43
2019-04-20T01:29:44.328Z,499.00
2019-04-20T01:31:59.294Z,489.43
2019-04-20T01:33:58.461Z,479.33
2019-04-20T01:36:19.634Z,481.43
2019-04-20T01:38:22.472Z,477.87
2019-04-20T01:40:13.083Z,475.23
2019-04-20T01:42:23.892Z,475.50
2019-04-20T01:44:33.416Z,462.10
2019-04-20T01:46:38.381Z,470.40
2019-04-20T01:48:41.948Z,462.93
2019-04-20T01:50:54.849Z,465.73
2019-04-20T01:53:08.618Z,456.40
2019-04-20T01:55:27.814Z,456.17
2019-04-20T01:57:38.743Z,453.43
2019-04-20T01:59:46.092Z,450.90
2019-04-20T02:02:14.267Z,451.90
2019-04-20T02:04:29.182Z,448.00
2019-04-20T02:06:41.869Z,444.20
2019-04-20T02:08:42.040Z,447.27
2019-04-20T02:10:53.726Z,440.23
2019-04-20T02:12:59.365Z,435.40
2019-04-20T02:15:04.213Z,433.40
2019-04-20T02:17:16.756Z,431.17
2019-04-20T02:19:30.504Z,428.70
2019-04-20T02:21:37.936Z,423.40
2019-04-20T02:23:38.465Z,425.93
2019-04-20T02:25:37.592Z,420.80
2019-04-20T02:27:48.843Z,419.60
2019-04-20T02:30:14.355Z,394.23
2019-04-20T02:32:22.477Z,408.60
2019-04-20T02:34:49.151Z,406.33
2019-04-20T02:37:16.909Z,398.60
2019-04-20T02:39:34.947Z,397.67
2019-04-20T02:41:27.831Z,398.00
2019-04-20T02:43:44.299Z,397.37
2019-04-20T02:50:00.231Z,386.00
2019-04-20T02:52:04.856Z,379.03
2019-04-20T02:54:17.085Z,376.33
2019-04-20T02:56:21.907Z,372.70
2019-04-20T02:58:23.869Z,370.13
2019-04-20T03:00:27.652Z,368.37
2019-04-20T03:02:23.002Z,362.27
2019-04-20T03:04:28.118Z,357.43
2019-04-20T03:06:38.828Z,345.23
2019-04-20T03:08:56.571Z,349.97
2019-04-20T03:11:09.301Z,350.90
2019-04-20T03:13:08.804Z,348.60
2019-04-20T03:15:04.527Z,353.27
2019-04-20T03:17:21.638Z,339.33
2019-04-20T03:19:19.762Z,332.60
2019-04-20T03:21:37.938Z,332.47
2019-04-20T03:23:57.285Z,326.80
2019-04-20T03:26:05.410Z,326.97
2019-04-20T03:28:15.546Z,328.73
2019-04-20T03:31:26.878Z,325.23
2019-04-20T03:33:11.688Z,318.73
2019-04-20T03:35:16.919Z,315.97
2019-04-20T03:37:17.211Z,309.30
2019-04-20T03:39:16.767Z,305.17
2019-04-20T03:41:14.835Z,306.70
2019-04-20T03:43:13.832Z,301.10
2019-04-20T03:45:28.125Z,301.70
2019-04-20T03:47:43.787Z,301.50
2019-04-20T03:52:31.060Z,283.33
2019-04-20T03:54:50.274Z,293.00
2019-04-20T03:57:16.993Z,287.07
2019-04-20T03:59:39.514Z,284.57
2019-04-20T04:04:34.515Z,271.30
2019-04-20T04:06:34.050Z,270.10
2019-04-20T04:08:38.016Z,275.27
2019-04-20T04:11:00.103Z,265.47
2019-04-20T04:13:24.963Z,263.97
2019-04-20T04:15:31.635Z,261.07
2019-04-20T04:17:41.581Z,269.83
2019-04-20T04:19:52.365Z,253.80
2019-04-20T04:22:04.194Z,263.47
2019-04-20T04:24:10.636Z,258.00
2019-04-20T04:26:21.981Z,250.20
2019-04-20T04:28:27.346Z,245.17
2019-04-20T04:30:31.063Z,248.97
2019-04-20T04:33:08.548Z,244.20
2019-04-20T04:34:52.680Z,234.97
2019-04-20T04:37:03.489Z,233.03
2019-04-20T04:39:08.669Z,238.33
2019-04-20T04:41:19.625Z,235.77
2019-04-20T04:43:19.938Z,231.77
2019-04-20T04:45:15.462Z,227.60
2019-04-20T04:47:19.858Z,221.07
2019-04-20T04:49:33.327Z,214.27
2019-04-20T04:51:47.070Z,225.37
2019-04-20T04:53:52.448Z,220.20
2019-04-20T04:55:56.493Z,216.50
2019-04-20T04:57:55.829Z,216.17
2019-04-20T05:00:01.549Z,212.17
2019-04-20T05:02:09.681Z,208.60
2019-04-20T05:04:50.596Z,208.60
2019-04-20T05:06:45.698Z,209.70
2019-04-20T05:08:45.542Z,202.30
2019-04-20T05:10:43.996Z,200.20
2019-04-20T05:12:48.262Z,203.73
2019-04-20T05:15:01.972Z,203.13
2019-04-20T05:17:15.120Z,198.53
2019-04-20T05:19:29.871Z,189.57
2019-04-20T05:21:59.893Z,196.97
2019-04-20T05:24:12.003Z,194.33
2019-04-20T05:26:39.763Z,187.30
2019-04-20T05:28:36.832Z,181.73
2019-04-20T05:30:40.184Z,187.03
2019-04-20T05:32:51.313Z,186.57
2019-04-20T05:35:12.270Z,187.83
2019-04-20T05:37:20.927Z,184.30
2019-04-20T05:39:22.480Z,181.63
2019-04-20T05:41:21.676Z,179.90
2019-04-20T05:43:36.237Z,178.57
2019-04-20T05:45:41.384Z,175.27
2019-04-20T05:47:53.657Z,173.90
2019-04-20T05:49:56.069Z,169.57
2019-04-20T05:52:19.753Z,177.00
2019-04-20T05:54:17.831Z,168.73
2019-04-20T05:56:16.999Z,169.97
2019-04-20T05:58:27.277Z,165.97
2019-04-20T06:00:34.575Z,168.70
2019-04-20T06:02:38.507Z,166.80
2019-04-20T06:04:59.933Z,151.90
2019-04-20T06:06:54.993Z,160.40
2019-04-20T06:09:08.773Z,159.03
2019-04-20T06:11:01.950Z,149.60
2019-04-20T06:13:17.744Z,153.90
2019-04-20T06:15:59.747Z,149.30
2019-04-20T06:18:24.091Z,145.53
2019-04-20T06:20:48.478Z,141.67
2019-04-20T06:22:54.622Z,142.47
2019-04-20T06:25:21.882Z,146.20
2019-04-20T06:27:14.585Z,138.13
2019-04-20T06:29:19.044Z,138.43
2019-04-20T06:31:35.602Z,135.90
2019-04-20T06:36:29.304Z,135.13
2019-04-20T06:38:48.269Z,131.10
2019-04-20T06:40:55.687Z,128.50
2019-04-20T06:42:58.836Z,122.43
2019-04-20T06:45:05.706Z,124.17
2019-04-20T06:47:08.968Z,121.03
2019-04-20T06:51:30.005Z,119.37
2019-04-20T06:53:47.302Z,113.87
2019-04-20T06:56:04.332Z,358.43
2019-04-20T06:58:04.306Z,334.90
2019-04-20T07:00:10.223Z,321.93
2019-04-20T07:04:40.158Z,562.37
2019-04-20T07:10:58.338Z,446.83
2019-04-20T07:13:01.713Z,346.90
2019-04-20T07:15:06.474Z,466.00
2019-04-20T07:17:51.787Z,611.63
2019-04-20T07:19:54.308Z,559.70
2019-04-20T07:22:18.536Z,467.37
2019-04-20T07:24:18.436Z,559.37
2019-04-20T07:26:24.402Z,464.07
2019-04-20T07:28:32.753Z,445.23
2019-04-20T07:30:35.671Z,456.37
2019-04-20T07:32:56.411Z,465.33
2019-04-20T07:34:57.318Z,462.17
2019-04-20T07:37:28.191Z,456.73
2019-04-20T07:39:17.101Z,458.93
2019-04-20T07:41:20.315Z,459.50
2019-04-20T07:43:19.870Z,441.10
2019-04-20T07:45:46.563Z,477.47
2019-04-20T07:49:48.336Z,417.67
2019-04-20T07:51:42.427Z,486.37
2019-04-20T07:54:10.594Z,535.17
2019-04-20T07:56:12.584Z,497.87
2019-04-20T07:58:09.783Z,1117.23
2019-04-20T08:00:38.299Z,545.53
2019-04-20T08:02:48.808Z,576.50
2019-04-20T08:05:04.355Z,567.60
2019-04-20T08:07:02.113Z,624.30
2019-04-20T08:09:14.552Z,553.07
2019-04-20T08:11:28.774Z,529.83
2019-04-20T08:13:51.431Z,517.17
2019-04-20T08:15:58.373Z,505.73
2019-04-20T08:18:01.244Z,503.23
2019-04-20T08:20:07.522Z,497.37
2019-04-20T08:22:21.884Z,492.90
2019-04-20T08:24:23.387Z,489.40
2019-04-20T08:26:28.935Z,487.30
2019-04-20T08:28:39.258Z,480.00
2019-04-20T08:31:04.989Z,477.07
2019-04-20T08:33:19.865Z,469.97
2019-04-20T08:35:32.007Z,460.87
2019-04-20T08:37:48.911Z,450.10
2019-04-20T08:42:02.641Z,442.10
2019-04-20T08:44:30.940Z,437.33
2019-04-20T08:46:23.147Z,436.67
2019-04-20T08:48:28.722Z,436.23
2019-04-20T08:50:34.163Z,420.43
2019-04-20T08:54:58.114Z,407.80
2019-04-20T08:56:48.825Z,407.77
2019-04-20T08:58:50.757Z,406.97
2019-04-20T09:01:00.230Z,392.93
2019-04-20T09:03:12.954Z,387.97
2019-04-20T09:05:34.929Z,393.10
2019-04-20T09:07:53.869Z,371.90
2019-04-20T09:10:21.865Z,363.83
2019-04-20T09:12:14.717Z,364.27
2019-04-20T09:14:21.435Z,351.80
2019-04-20T09:16:40.555Z,359.93
2019-04-20T09:18:50.338Z,347.10
2019-04-20T09:20:58.922Z,342.63
2019-04-20T09:23:21.345Z,326.03
2019-04-20T09:25:49.983Z,327.93
2019-04-20T09:27:38.366Z,320.77
2019-04-20T09:29:49.475Z,323.00
2019-04-20T09:32:11.334Z,316.13
2019-04-20T09:34:21.979Z,314.23
2019-04-20T09:36:32.606Z,305.63
2019-04-20T09:39:11.336Z,300.27
2019-04-20T09:41:34.555Z,297.20
2019-04-20T09:43:39.487Z,289.03
2019-04-20T09:45:50.437Z,284.97
2019-04-20T09:47:56.628Z,280.27
2019-04-20T09:50:21.418Z,273.47
2019-04-20T09:52:28.276Z,264.83
2019-04-20T09:54:41.583Z,262.83
2019-04-20T09:56:48.367Z,254.57
2019-04-20T09:59:00.810Z,256.27
2019-04-20T10:01:03.233Z,257.20
2019-04-20T10:02:58.021Z,250.27
2019-04-20T10:05:13.570Z,243.20
2019-04-20T10:07:32.539Z,233.53
2019-04-20T10:09:38.236Z,226.00
2019-04-20T10:11:47.630Z,228.13
2019-04-20T10:13:54.364Z,219.53
2019-04-20T10:15:59.772Z,222.73
2019-04-20T10:18:17.483Z,220.53
2019-04-20T10:20:30.920Z,213.17
2019-04-20T10:22:32.802Z,204.93
2019-04-20T10:24:42.349Z,206.63
2019-04-20T10:26:48.030Z,198.80
2019-04-20T10:28:52.837Z,200.63
2019-04-20T10:30:58.841Z,195.87
2019-04-20T10:33:05.644Z,190.07
2019-04-20T10:35:16.887Z,191.70
2019-04-20T10:37:31.409Z,186.80
2019-04-20T10:39:40.538Z,178.73
2019-04-20T10:41:50.503Z,185.07
2019-04-20T10:43:53.101Z,174.03
2019-04-20T10:46:00.462Z,174.63
2019-04-20T10:48:05.446Z,169.50
2019-04-20T10:50:14.375Z,166.07
2019-04-20T10:52:28.205Z,168.40
2019-04-20T10:54:36.642Z,164.47
2019-04-20T10:56:45.780Z,161.03
2019-04-20T10:58:56.201Z,156.97
2019-04-20T11:01:01.691Z,158.23
2019-04-20T11:03:08.086Z,153.53
2019-04-20T11:05:14.914Z,150.40
2019-04-20T11:07:22.850Z,146.50
2019-04-20T11:09:28.952Z,151.37
2019-04-20T11:11:34.212Z,135.33
2019-04-20T11:13:41.389Z,144.67
2019-04-20T11:15:48.615Z,135.43
2019-04-20T11:17:53.305Z,134.90
2019-04-20T11:19:59.109Z,133.90
2019-04-20T11:22:08.365Z,137.27
2019-04-20T11:24:16.381Z,127.40
2019-04-20T11:26:26.860Z,126.83
2019-04-20T11:28:32.372Z,130.03
2019-04-20T11:30:40.591Z,127.33
2019-04-20T11:32:46.624Z,123.93
2019-04-20T11:34:53.309Z,120.13
2019-04-20T11:37:01.398Z,118.40
2019-04-20T11:39:14.722Z,119.53
2019-04-20T11:41:31.044Z,113.60
2019-04-20T11:43:35.622Z,111.20
2019-04-20T11:45:43.151Z,119.13
2019-04-20T11:47:51.578Z,106.73
2019-04-20T11:49:57.620Z,105.53
2019-04-20T11:52:10.766Z,109.67
2019-04-20T11:54:18.711Z,104.93
2019-04-20T11:56:30.426Z,102.03
2019-04-20T11:58:33.147Z,107.40
2019-04-20T12:00:52.199Z,102.23
2019-04-20T12:03:16.074Z,102.23
2019-04-20T12:05:29.830Z,94.07
2019-04-20T12:07:27.137Z,91.10
2019-04-20T12:09:33.552Z,94.17
2019-04-20T12:11:53.317Z,88.33
2019-04-20T12:13:50.142Z,94.87
2019-04-20T12:15:56.008Z,85.80
2019-04-20T12:18:02.480Z,88.20
2019-04-20T12:20:12.175Z,84.93
2019-04-20T12:22:22.255Z,81.50
2019-04-20T12:24:31.183Z,83.67
2019-04-20T12:26:36.534Z,79.37
2019-04-20T12:28:41.728Z,77.87
2019-04-20T12:30:46.159Z,78.87
2019-04-20T12:32:55.131Z,77.90
2019-04-20T12:34:58.195Z,75.60
2019-04-20T12:37:02.943Z,79.37
2019-04-20T12:39:17.272Z,75.50
2019-04-20T12:41:37.434Z,73.27
2019-04-20T12:43:35.916Z,69.23
2019-04-20T12:45:42.061Z,67.93
2019-04-20T12:47:49.820Z,66.23
2019-04-20T12:49:55.829Z,65.70
2019-04-20T12:52:03.455Z,67.70
2019-04-20T12:54:14.532Z,66.87
2019-04-20T12:56:22.472Z,64.37
2019-04-20T12:58:30.580Z,63.20
2019-04-20T13:00:45.963Z,61.77
2019-04-20T13:02:51.463Z,60.33
2019-04-20T13:04:57.374Z,62.07
2019-04-20T13:07:02.156Z,58.90
2019-04-20T13:09:12.744Z,58.63
2019-04-20T13:11:46.289Z,57.33
2019-04-20T13:13:52.512Z,61.80
2019-04-20T13:16:12.210Z,57.50
2019-04-20T13:18:23.230Z,55.50
2019-04-20T13:20:28.125Z,52.93
2019-04-20T13:22:33.016Z,55.93
2019-04-20T13:24:37.290Z,52.77
2019-04-20T13:26:42.779Z,52.70
2019-04-20T13:28:47.047Z,54.77
2019-04-20T13:30:51.556Z,51.00
2019-04-20T13:32:57.110Z,51.40
2019-04-20T13:35:02.976Z,48.10
2019-04-20T13:37:11.600Z,50.23
2019-04-20T13:39:20.599Z,50.13
2019-04-20T13:41:25.773Z,49.53
2019-04-20T13:43:30.236Z,47.33
2019-04-20T13:45:37.177Z,46.73
2019-04-20T13:47:43.090Z,46.93
2019-04-20T13:49:49.203Z,46.33
2019-04-20T13:51:56.988Z,44.67
2019-04-20T13:54:01.830Z,44.00
2019-04-20T13:56:07.893Z,43.23
2019-04-20T13:58:31.828Z,42.60
2019-04-20T14:00:50.345Z,42.07
2019-04-20T14:03:00.987Z,41.80
2019-04-20T14:05:10.909Z,38.97
2019-04-20T14:07:18.579Z,40.60
2019-04-20T14:09:27.491Z,40.60
2019-04-20T14:11:33.708Z,39.27
2019-04-20T14:13:45.074Z,39.40
2019-04-20T14:15:45.070Z,35.93
2019-04-20T14:17:51.036Z,37.03
2019-04-20T14:19:57.136Z,38.00
2019-04-20T14:22:02.218Z,38.73
2019-04-20T14:24:10.960Z,37.60
2019-04-20T14:26:21.002Z,34.80
2019-04-20T14:28:27.051Z,36.83
2019-04-20T14:30:33.008Z,34.73
2019-04-20T14:32:38.789Z,35.90
2019-04-20T14:34:44.750Z,34.03
2019-04-20T14:36:50.912Z,35.03
2019-04-20T14:38:56.086Z,33.47
2019-04-20T14:41:00.404Z,33.07
2019-04-20T14:43:11.187Z,32.67
2019-04-20T14:45:17.007Z,31.87
2019-04-20T14:47:29.824Z,33.40
2019-04-20T14:49:36.777Z,32.27
2019-04-20T14:51:41.971Z,30.37
2019-04-20T14:53:47.455Z,30.53
2019-04-20T14:55:53.684Z,33.00
2019-04-20T14:58:01.584Z,31.93
2019-04-20T15:00:14.816Z,30.00
2019-04-20T15:02:25.842Z,33.53
2019-04-20T15:04:32.009Z,32.17
2019-04-20T15:06:39.682Z,30.10
2019-04-20T15:08:43.012Z,30.13
2019-04-20T15:10:49.035Z,28.07
2019-04-20T15:12:59.105Z,29.33
2019-04-20T15:15:00.735Z,28.00
2019-04-20T15:17:06.754Z,28.33
2019-04-20T15:19:30.071Z,28.00
2019-04-20T15:21:35.599Z,27.73
2019-04-20T15:23:41.479Z,29.90
2019-04-20T15:25:46.444Z,28.23
2019-04-20T15:27:52.286Z,28.53
2019-04-20T15:29:58.160Z,27.23
2019-04-20T15:32:04.178Z,25.77
2019-04-20T15:34:11.323Z,27.00
2019-04-20T15:36:17.923Z,25.80
2019-04-20T15:38:24.898Z,26.90
2019-04-20T15:40:31.020Z,24.60
2019-04-20T15:42:47.943Z,25.47
2019-04-20T15:44:42.929Z,26.30
2019-04-20T15:46:48.830Z,25.63
2019-04-20T15:48:53.115Z,24.50
2019-04-20T15:50:58.188Z,25.03
2019-04-20T15:53:04.079Z,24.90
2019-04-20T15:55:19.543Z,23.37
2019-04-20T15:57:27.034Z,26.10
2019-04-20T15:59:30.628Z,23.60
2019-04-20T16:01:43.271Z,22.13
2019-04-20T16:04:01.478Z,22.93
2019-04-20T16:06:11.492Z,22.53
2019-04-20T16:08:34.618Z,23.70
2019-04-20T16:10:39.302Z,21.60
2019-04-20T16:12:44.913Z,20.83
2019-04-20T16:14:49.682Z,22.17
2019-04-20T16:16:54.351Z,21.47
2019-04-20T16:19:04.032Z,21.50
2019-04-20T16:21:11.646Z,20.50
2019-04-20T16:23:14.511Z,20.30
2019-04-20T16:25:39.313Z,20.17
2019-04-20T16:27:43.642Z,20.07
2019-04-20T16:29:49.406Z,21.23
2019-04-20T16:31:54.389Z,20.00
2019-04-20T16:33:58.893Z,20.23
2019-04-20T16:36:05.281Z,20.20
2019-04-20T16:38:14.074Z,20.87
2019-04-20T16:40:27.351Z,19.50
2019-04-20T16:42:32.215Z,19.87
2019-04-20T16:44:37.028Z,19.47
2019-04-20T16:46:45.820Z,20.17
2019-04-20T16:48:50.350Z,20.73
2019-04-20T16:50:56.536Z,18.83
2019-04-20T16:53:01.141Z,19.23
2019-04-20T16:55:06.263Z,19.23
2019-04-20T16:57:27.921Z,19.27
2019-04-20T16:59:39.058Z,20.60
2019-04-20T17:01:40.475Z,19.17
2019-04-20T17:03:54.648Z,19.43
2019-04-20T17:05:51.512Z,18.33
2019-04-20T17:07:57.992Z,19.43
2019-04-20T17:10:15.983Z,19.20
2019-04-20T17:12:37.594Z,20.83
2019-04-20T17:14:45.788Z,25.07
2019-04-20T17:16:59.916Z,23.83
2019-04-20T17:19:05.944Z,23.30
2019-04-20T17:21:18.781Z,23.27
2019-04-20T17:23:27.624Z,21.70
2019-04-20T17:25:32.401Z,21.70
2019-04-20T17:27:49.167Z,21.07
2019-04-20T17:30:21.127Z,20.47
2019-04-20T17:32:27.452Z,21.20
2019-04-20T17:34:46.838Z,20.40
2019-04-20T17:36:42.208Z,19.33
2019-04-20T17:38:52.580Z,20.00
2019-04-20T17:41:08.633Z,19.57
2019-04-20T17:43:10.574Z,19.67
2019-04-20T17:45:27.375Z,19.63
2019-04-20T17:47:44.601Z,18.87
2019-04-20T17:49:49.266Z,18.93
2019-04-20T17:51:58.188Z,20.07
2019-04-20T17:54:06.377Z,20.17
2019-04-20T17:56:10.483Z,19.07
2019-04-20T17:58:23.120Z,21.33
2019-04-20T18:00:47.524Z,19.30
2019-04-20T18:03:07.370Z,19.47
2019-04-20T18:05:23.681Z,19.93
2019-04-20T18:07:31.222Z,20.80
2019-04-20T18:09:41.506Z,18.97
2019-04-20T18:11:26.130Z,21.53
2019-04-20T18:13:34.102Z,20.90
2019-04-20T18:15:57.474Z,20.60
2019-04-20T18:18:24.477Z,20.60
2019-04-20T18:20:28.377Z,20.90
2019-04-20T18:22:34.092Z,19.97
2019-04-20T18:25:09.697Z,21.93
2019-04-20T18:27:08.374Z,20.70
2019-04-20T18:29:15.152Z,19.20
2019-04-20T18:31:29.120Z,21.57
2019-04-20T18:33:42.501Z,20.23
2019-04-20T18:35:48.934Z,22.03
2019-04-20T18:38:00.949Z,20.97
2019-04-20T18:40:07.135Z,19.80
2019-04-20T18:42:13.049Z,21.37
2019-04-20T18:44:19.157Z,19.73
2019-04-20T18:46:49.509Z,19.00
2019-04-20T18:48:57.111Z,19.13
2019-04-20T18:50:42.195Z,18.13
2019-04-20T18:52:45.808Z,18.60
2019-04-20T18:54:53.621Z,19.27
2019-04-20T18:56:58.444Z,17.13
2019-04-20T18:59:05.096Z,18.40
2019-04-20T19:01:15.001Z,18.23
2019-04-20T19:03:31.211Z,17.87
2019-04-20T19:05:33.808Z,18.13
2019-04-20T19:07:53.727Z,18.03
2019-04-20T19:10:01.903Z,18.53
2019-04-20T19:12:02.908Z,18.57
2019-04-20T19:14:33.618Z,21.03
2019-04-20T19:16:53.843Z,17.60
2019-04-20T19:19:05.320Z,17.77
2019-04-20T19:21:01.400Z,116.87
2019-04-20T19:23:10.232Z,549.43
2019-04-20T19:25:31.685Z,1075.90
2019-04-20T19:27:39.941Z,377.83
2019-04-20T19:29:55.514Z,639.57
2019-04-20T19:32:17.161Z,849.60
2019-04-20T19:34:26.558Z,17.50
2019-04-20T19:36:28.602Z,114.37
2019-04-20T19:38:41.760Z,25.13
2019-04-20T19:40:45.419Z,75.53
2019-04-20T19:42:58.572Z,921.23
2019-04-20T19:45:01.982Z,727.27
2019-04-20T19:47:15.672Z,17.67
2019-04-20T19:49:17.429Z,213.87
2019-04-20T19:51:35.790Z,22.43
2019-04-20T19:53:41.765Z,16.03
2019-04-20T19:55:44.632Z,16.03
2019-04-20T19:57:50.415Z,17.80
2019-04-20T19:59:48.381Z,17.03
2019-04-20T20:01:49.650Z,112.93
2019-04-20T20:03:59.176Z,1266.47
2019-04-20T20:06:11.098Z,854.53
2019-04-20T20:08:23.040Z,991.60
2019-04-20T20:10:29.881Z,359.47
2019-04-20T20:12:39.853Z,17.57
2019-04-20T20:14:50.014Z,17.87
2019-04-20T20:17:11.651Z,17.80
2019-04-20T20:19:10.519Z,17.17
2019-04-20T20:21:22.527Z,16.30
2019-04-20T20:23:20.755Z,16.40
2019-04-20T20:25:37.131Z,17.40
2019-04-20T20:27:52.748Z,17.67
2019-04-20T20:30:00.874Z,17.63
2019-04-20T20:32:10.177Z,67.77
2019-04-20T20:34:12.881Z,48.40
2019-04-20T20:36:19.279Z,16.60
2019-04-20T20:38:32.911Z,1115.83
2019-04-20T20:40:36.367Z,525.40
2019-04-20T20:42:53.078Z,21.13
2019-04-20T20:44:55.130Z,664.20
2019-04-20T20:47:05.587Z,184.40
2019-04-20T20:49:16.798Z,50.13
2019-04-20T20:51:39.239Z,16.83
2019-04-20T20:53:38.685Z,17.07
2019-04-20T20:55:40.708Z,15.90
2019-04-20T20:57:49.462Z,15.07
2019-04-20T21:00:00.836Z,16.00
2019-04-20T21:02:06.473Z,16.10
2019-04-20T21:04:07.575Z,16.00
2019-04-20T21:06:17.245Z,15.70
2019-04-20T21:08:24.061Z,14.93
2019-04-20T21:10:38.615Z,14.77
2019-04-20T21:12:46.507Z,15.40
2019-04-20T21:14:47.317Z,15.90
2019-04-20T21:17:00.911Z,13.87
2019-04-20T21:19:13.278Z,14.00
2019-04-20T21:21:17.911Z,14.33
2019-04-20T21:23:28.321Z,14.50
2019-04-20T21:25:36.042Z,14.53
2019-04-20T21:27:39.046Z,13.87
2019-04-20T21:29:50.541Z,13.10
2019-04-20T21:31:57.775Z,13.73
2019-04-20T21:34:01.873Z,15.43
2019-04-20T21:36:09.290Z,14.23
2019-04-20T21:38:24.937Z,14.53
2019-04-20T21:40:39.213Z,14.30
2019-04-20T21:42:47.959Z,13.80
2019-04-20T21:44:50.148Z,14.17
2019-04-20T21:47:00.327Z,13.87
2019-04-20T21:49:26.215Z,13.43
2019-04-20T21:51:38.344Z,14.80
2019-04-20T21:53:35.918Z,14.00
2019-04-20T21:55:48.055Z,13.50
2019-04-20T21:57:55.655Z,14.90
2019-04-20T22:00:08.505Z,13.33
2019-04-20T22:02:16.730Z,13.50
2019-04-20T22:04:23.034Z,13.80
2019-04-20T22:06:29.047Z,14.63
2019-04-20T22:08:51.117Z,14.10
2019-04-20T22:10:55.494Z,12.87
2019-04-20T22:13:03.217Z,13.37
2019-04-20T22:15:17.882Z,13.70
2019-04-20T22:17:28.646Z,14.40
2019-04-20T22:19:44.163Z,13.80
2019-04-20T22:21:54.368Z,13.33
2019-04-20T22:24:09.473Z,14.10
2019-04-20T22:26:20.727Z,13.73
2019-04-20T22:28:26.724Z,14.17
2019-04-20T22:30:33.408Z,13.83
2019-04-20T22:32:50.305Z,12.37
2019-04-20T22:35:04.760Z,13.77
2019-04-20T22:37:20.091Z,12.27
2019-04-20T22:39:39.657Z,11.73
2019-04-20T22:41:52.347Z,13.20
2019-04-20T22:43:57.020Z,13.47
2019-04-20T22:46:03.383Z,551.07
2019-04-20T22:48:17.391Z,588.17
2019-04-20T22:50:42.276Z,386.63
2019-04-20T22:52:48.682Z,143.53
2019-04-20T22:55:12.059Z,129.53
2019-04-20T22:57:03.352Z,424.07
2019-04-20T22:59:09.299Z,235.67
2019-04-20T23:01:24.955Z,47.10
2019-04-20T23:03:28.492Z,21.77
2019-04-20T23:05:33.825Z,23.73
2019-04-20T23:07:41.038Z,23.10
2019-04-20T23:09:53.900Z,20.23
2019-04-20T23:12:00.993Z,21.47
2019-04-20T23:14:02.455Z,24.70
2019-04-20T23:16:09.285Z,21.30
2019-04-20T23:18:36.334Z,18.97
2019-04-20T23:20:42.431Z,17.77
2019-04-20T23:22:50.463Z,18.83
2019-04-20T23:24:55.304Z,76.90
2019-04-20T23:27:05.349Z,21.07
2019-04-20T23:29:09.138Z,27.50
2019-04-20T23:31:20.578Z,69.77
2019-04-20T23:33:29.842Z,20.90
2019-04-20T23:35:37.659Z,57.97
2019-04-20T23:37:43.299Z,28.63
2019-04-20T23:39:49.561Z,21.10
2019-04-20T23:41:58.603Z,21.87
2019-04-20T23:44:16.072Z,18.63
2019-04-20T23:46:31.582Z,17.87
2019-04-20T23:48:45.139Z,17.70
2019-04-20T23:51:08.247Z,16.40
2019-04-20T23:53:18.102Z,18.03
2019-04-20T23:55:06.814Z,17.87
2019-04-20T23:57:13.552Z,23.50
2019-04-20T23:59:28.947Z,18.27
